createdAt,value
2023-04-29T00:01:20.928Z,81.26
2023-04-29T00:03:47.937Z,82.76
2023-04-29T00:06:15.208Z,85.44
2023-04-29T00:08:42.993Z,83.66
2023-04-29T00:11:11.208Z,84.18
2023-04-29T00:13:40.844Z,83.89
2023-04-29T00:16:08.095Z,85.38
2023-04-29T00:18:34.715Z,84.97
2023-04-29T00:21:02.206Z,86.53
2023-04-29T00:23:28.825Z,86.06
2023-04-29T00:25:55.482Z,87.20
2023-04-29T00:28:22.102Z,88.81
2023-04-29T00:30:49.782Z,88.81
2023-04-29T00:33:16.525Z,89.32
2023-04-29T00:35:43.296Z,90.93
2023-04-29T00:38:09.922Z,92.83
2023-04-29T00:40:36.809Z,93.27
2023-04-29T00:43:03.434Z,94.14
2023-04-29T00:45:30.200Z,98.73
2023-04-29T00:47:57.417Z,96.86
2023-04-29T00:50:24.627Z,98.38
2023-04-29T00:52:52.584Z,99.29
2023-04-29T00:55:19.605Z,100.00
2023-04-29T00:57:48.639Z,100.00
2023-04-29T01:00:16.289Z,100.00
2023-04-29T01:02:42.905Z,99.71
2023-04-29T01:05:09.662Z,97.80
2023-04-29T01:07:59.588Z,98.29
2023-04-29T01:10:32.292Z,100.00
2023-04-29T01:13:06.820Z,98.94
2023-04-29T01:15:51.178Z,98.05
2023-04-29T01:18:25.033Z,96.69
2023-04-29T01:20:52.105Z,96.84
2023-04-29T01:23:18.863Z,95.19
2023-04-29T01:25:46.250Z,96.89
2023-04-29T01:28:40.795Z,96.57
2023-04-29T01:31:18.551Z,96.99
2023-04-29T01:33:56.180Z,95.05
2023-04-29T01:36:48.579Z,95.57
2023-04-29T01:39:31.561Z,97.82
2023-04-29T01:42:31.231Z,96.60
2023-04-29T01:44:58.782Z,96.11
2023-04-29T01:47:25.553Z,96.22
2023-04-29T01:49:54.391Z,99.91
2023-04-29T01:52:23.263Z,99.65
2023-04-29T01:54:57.430Z,98.59
2023-04-29T01:57:26.641Z,96.65
2023-04-29T02:00:09.130Z,96.04
2023-04-29T02:02:43.344Z,96.48
2023-04-29T02:05:34.468Z,97.41
2023-04-29T02:08:01.686Z,98.27
2023-04-29T02:10:29.343Z,98.80
2023-04-29T02:13:04.830Z,98.28
2023-04-29T02:15:31.632Z,98.17
2023-04-29T02:17:58.720Z,98.16
2023-04-29T02:20:25.605Z,98.35
2023-04-29T02:22:52.468Z,98.97
2023-04-29T02:25:20.455Z,99.47
2023-04-29T02:27:47.393Z,99.98
2023-04-29T02:30:14.039Z,100.00
2023-04-29T02:32:41.377Z,100.00
2023-04-29T02:35:08.885Z,100.00
2023-04-29T02:37:35.548Z,100.00
2023-04-29T02:40:03.439Z,100.00
2023-04-29T02:42:30.530Z,100.00
2023-04-29T02:44:57.226Z,100.00
2023-04-29T02:47:23.883Z,100.00
2023-04-29T02:49:50.955Z,100.00
2023-04-29T02:52:19.211Z,100.00
2023-04-29T02:54:46.306Z,100.00
2023-04-29T02:57:13.031Z,100.00
2023-04-29T02:59:39.714Z,100.00
2023-04-29T03:02:06.386Z,100.00
2023-04-29T03:04:33.364Z,100.00
2023-04-29T03:07:00.032Z,100.00
2023-04-29T03:09:27.154Z,100.00
2023-04-29T03:11:54.221Z,100.00
2023-04-29T03:14:21.138Z,100.00
2023-04-29T03:16:48.154Z,100.00
2023-04-29T03:19:15.499Z,100.00
2023-04-29T03:21:42.264Z,100.00
2023-04-29T03:24:08.886Z,100.00
2023-04-29T03:26:36.795Z,100.00
2023-04-29T03:29:03.702Z,100.00
2023-04-29T03:31:30.407Z,100.00
2023-04-29T03:33:57.196Z,100.00
2023-04-29T03:36:24.427Z,100.00
2023-04-29T03:39:00.854Z,100.00
2023-04-29T03:41:27.606Z,100.00
2023-04-29T03:43:55.044Z,100.00
2023-04-29T03:46:21.822Z,100.00
2023-04-29T03:48:48.683Z,100.00
2023-04-29T03:51:15.463Z,100.00
2023-04-29T03:53:42.178Z,100.00
2023-04-29T03:56:09.235Z,100.00
2023-04-29T03:58:36.554Z,100.00
2023-04-29T04:01:03.184Z,100.00
2023-04-29T04:03:34.574Z,100.00
2023-04-29T04:06:01.561Z,100.00
2023-04-29T04:08:28.224Z,100.00
2023-04-29T04:11:03.164Z,100.00
2023-04-29T04:13:36.947Z,100.00
2023-04-29T04:16:05.063Z,100.00
2023-04-29T04:18:31.836Z,100.00
2023-04-29T04:20:58.899Z,99.76
2023-04-29T04:23:25.844Z,98.48
2023-04-29T04:25:54.904Z,98.44
2023-04-29T04:28:40.396Z,97.62
2023-04-29T04:31:16.953Z,97.63
2023-04-29T04:33:43.686Z,97.58
2023-04-29T04:36:10.601Z,96.44
2023-04-29T04:38:37.704Z,96.45
2023-04-29T04:41:08.326Z,96.22
2023-04-29T04:43:37.260Z,96.28
2023-04-29T04:46:12.182Z,95.22
2023-04-29T04:48:43.075Z,94.85
2023-04-29T04:51:11.443Z,94.66
2023-04-29T04:53:38.714Z,95.34
2023-04-29T04:56:09.244Z,94.94
2023-04-29T04:58:36.212Z,94.88
2023-04-29T05:01:03.669Z,94.37
2023-04-29T05:03:31.994Z,95.42
2023-04-29T05:05:59.559Z,94.82
2023-04-29T05:08:26.728Z,95.66
2023-04-29T05:10:54.471Z,96.63
2023-04-29T05:13:21.552Z,96.63
2023-04-29T05:15:48.247Z,95.85
2023-04-29T05:18:18.221Z,96.07
2023-04-29T05:20:47.584Z,97.34
2023-04-29T05:23:14.332Z,97.62
2023-04-29T05:25:42.544Z,97.90
2023-04-29T05:28:09.185Z,96.82
2023-04-29T05:30:38.091Z,95.78
2023-04-29T05:33:05.427Z,95.98
2023-04-29T05:35:32.270Z,95.86
2023-04-29T05:37:59.388Z,95.54
2023-04-29T05:40:32.490Z,95.46
2023-04-29T05:43:13.936Z,93.57
2023-04-29T05:45:40.688Z,92.98
2023-04-29T05:48:07.454Z,91.67
2023-04-29T05:50:35.326Z,91.39
2023-04-29T05:53:02.004Z,90.09
2023-04-29T05:55:28.974Z,89.08
2023-04-29T05:57:55.891Z,89.29
2023-04-29T06:00:23.457Z,90.10
2023-04-29T06:02:58.585Z,89.25
2023-04-29T06:05:27.906Z,83.79
2023-04-29T06:08:10.773Z,83.03
2023-04-29T06:10:52.272Z,78.94
2023-04-29T06:13:19.205Z,78.35
2023-04-29T06:15:46.095Z,79.12
2023-04-29T06:18:14.147Z,74.24
2023-04-29T06:20:40.806Z,72.97
2023-04-29T06:23:07.723Z,71.43
2023-04-29T06:25:34.585Z,69.37
2023-04-29T06:28:04.706Z,70.61
2023-04-29T06:30:31.772Z,71.77
2023-04-29T06:32:58.908Z,69.37
2023-04-29T06:35:25.818Z,68.12
2023-04-29T06:38:18.319Z,65.85
2023-04-29T06:40:55.755Z,63.29
2023-04-29T06:43:36.623Z,55.86
2023-04-29T06:46:29.208Z,51.66
2023-04-29T06:49:07.208Z,50.04
2023-04-29T06:51:33.957Z,49.87
2023-04-29T06:54:00.658Z,50.14
2023-04-29T06:56:27.509Z,47.29
2023-04-29T06:58:54.354Z,45.14
2023-04-29T07:01:21.533Z,44.24
2023-04-29T07:03:50.863Z,42.64
2023-04-29T07:06:19.400Z,41.72
2023-04-29T07:08:46.109Z,40.85
2023-04-29T07:11:15.034Z,41.59
2023-04-29T07:13:41.649Z,42.30
2023-04-29T07:16:22.156Z,40.92
2023-04-29T07:18:51.768Z,41.56
2023-04-29T07:21:18.385Z,43.08
2023-04-29T07:23:45.032Z,40.90
2023-04-29T07:26:13.190Z,39.80
2023-04-29T07:28:40.304Z,40.34
2023-04-29T07:31:09.007Z,41.13
2023-04-29T07:33:35.793Z,40.94
2023-04-29T07:36:03.923Z,39.87
2023-04-29T07:38:30.945Z,39.63
2023-04-29T07:40:57.911Z,39.15
2023-04-29T07:43:24.691Z,40.17
2023-04-29T07:45:51.844Z,39.83
2023-04-29T07:48:18.792Z,39.91
2023-04-29T07:50:45.910Z,39.37
2023-04-29T07:53:12.552Z,39.43
2023-04-29T07:55:39.205Z,39.81
2023-04-29T07:58:06.359Z,39.47
2023-04-29T08:00:33.500Z,38.37
2023-04-29T08:03:00.407Z,38.33
2023-04-29T08:05:28.287Z,38.91
2023-04-29T08:07:55.447Z,39.09
2023-04-29T08:10:25.051Z,38.49
2023-04-29T08:12:51.915Z,36.91
2023-04-29T08:15:18.641Z,36.76
2023-04-29T08:17:45.897Z,37.47
2023-04-29T08:20:13.056Z,37.12
2023-04-29T08:22:39.736Z,38.11
2023-04-29T08:25:07.267Z,39.08
2023-04-29T08:27:33.954Z,39.38
2023-04-29T08:30:00.797Z,39.87
2023-04-29T08:32:27.591Z,40.26
2023-04-29T08:34:54.495Z,40.88
2023-04-29T08:37:21.350Z,41.62
2023-04-29T08:39:48.402Z,40.85
2023-04-29T08:42:15.074Z,38.86
2023-04-29T08:44:42.152Z,40.12
2023-04-29T08:47:08.929Z,40.75
2023-04-29T08:49:38.267Z,40.82
2023-04-29T08:52:05.134Z,40.26
2023-04-29T08:54:32.893Z,41.13
2023-04-29T08:56:59.689Z,40.60
2023-04-29T08:59:26.625Z,40.85
2023-04-29T09:01:53.640Z,39.85
2023-04-29T09:04:46.328Z,40.20
2023-04-29T09:07:13.364Z,41.62
2023-04-29T09:09:39.981Z,42.12
2023-04-29T09:12:07.612Z,41.61
2023-04-29T09:14:36.750Z,43.27
2023-04-29T09:17:03.363Z,43.35
2023-04-29T09:19:34.470Z,44.64
2023-04-29T09:22:01.981Z,42.37
2023-04-29T09:24:30.214Z,41.11
2023-04-29T09:26:57.151Z,39.19
2023-04-29T09:29:24.128Z,40.98
2023-04-29T09:31:51.738Z,41.40
2023-04-29T09:34:18.592Z,41.54
2023-04-29T09:36:46.037Z,40.85
2023-04-29T09:39:20.262Z,41.68
2023-04-29T09:41:54.120Z,41.10
2023-04-29T09:44:25.282Z,41.44
2023-04-29T09:47:18.249Z,41.54
2023-04-29T09:49:49.972Z,40.64
2023-04-29T09:52:16.901Z,42.30
2023-04-29T09:54:44.229Z,41.97
2023-04-29T09:57:12.075Z,41.25
2023-04-29T09:59:40.609Z,40.73
2023-04-29T10:02:18.742Z,41.33
2023-04-29T10:04:47.528Z,40.76
2023-04-29T10:07:15.949Z,39.59
2023-04-29T10:09:42.599Z,39.56
2023-04-29T10:12:09.196Z,40.05
2023-04-29T10:14:39.385Z,42.48
2023-04-29T10:17:17.403Z,42.32
2023-04-29T10:19:51.681Z,41.86
2023-04-29T10:22:32.533Z,41.71
2023-04-29T10:24:59.256Z,40.32
2023-04-29T10:27:26.537Z,40.96
2023-04-29T10:29:53.271Z,41.72
2023-04-29T10:32:19.890Z,42.99
2023-04-29T10:34:46.801Z,41.38
2023-04-29T10:37:13.422Z,40.92
2023-04-29T10:39:57.514Z,41.13
2023-04-29T10:42:44.581Z,41.26
2023-04-29T10:45:31.927Z,41.28
2023-04-29T10:48:01.623Z,41.04
2023-04-29T10:50:32.358Z,44.31
2023-04-29T10:53:01.861Z,45.59
2023-04-29T10:55:28.558Z,43.29
2023-04-29T10:57:58.703Z,41.90
2023-04-29T11:00:33.413Z,42.41
2023-04-29T11:03:05.860Z,42.38
2023-04-29T11:05:36.727Z,41.41
2023-04-29T11:08:10.936Z,41.62
2023-04-29T11:10:38.917Z,39.16
2023-04-29T11:13:25.144Z,39.82
2023-04-29T11:15:52.498Z,38.73
2023-04-29T11:18:19.286Z,38.01
2023-04-29T11:21:09.338Z,37.75
2023-04-29T11:23:36.893Z,37.51
2023-04-29T11:26:03.535Z,38.66
2023-04-29T11:28:30.976Z,39.43
2023-04-29T11:30:57.937Z,38.76
2023-04-29T11:33:27.245Z,39.59
2023-04-29T11:35:54.680Z,39.50
2023-04-29T11:38:28.796Z,39.76
2023-04-29T11:40:56.377Z,39.62
2023-04-29T11:43:23.877Z,39.16
2023-04-29T11:45:51.841Z,39.21
2023-04-29T11:48:22.177Z,39.67
2023-04-29T11:50:49.760Z,38.18
2023-04-29T11:53:16.366Z,39.25
2023-04-29T11:55:46.276Z,38.39
2023-04-29T11:58:14.489Z,38.32
2023-04-29T12:00:41.530Z,39.58
2023-04-29T12:03:28.629Z,40.27
2023-04-29T12:05:56.109Z,39.23
2023-04-29T12:08:23.632Z,38.93
2023-04-29T12:10:50.740Z,39.60
2023-04-29T12:13:18.039Z,39.48
2023-04-29T12:15:46.566Z,38.04
2023-04-29T12:18:13.955Z,38.64
2023-04-29T12:20:40.987Z,38.13
2023-04-29T12:23:24.349Z,38.58
2023-04-29T12:25:59.108Z,37.79
2023-04-29T12:28:26.233Z,38.38
2023-04-29T12:30:56.771Z,37.84
2023-04-29T12:33:24.907Z,37.28
2023-04-29T12:35:51.980Z,37.86
2023-04-29T12:38:27.687Z,40.40
2023-04-29T12:40:55.392Z,40.19
2023-04-29T12:43:31.760Z,37.95
2023-04-29T12:46:05.828Z,38.76
2023-04-29T12:48:33.896Z,38.15
2023-04-29T12:51:01.829Z,37.37
2023-04-29T12:53:31.760Z,36.67
2023-04-29T12:55:58.483Z,37.16
2023-04-29T12:58:25.142Z,36.80
2023-04-29T13:00:52.288Z,38.53
2023-04-29T13:03:22.016Z,37.95
2023-04-29T13:05:52.680Z,37.17
2023-04-29T13:08:19.627Z,36.71
2023-04-29T13:10:46.437Z,36.47
2023-04-29T13:13:13.283Z,36.76
2023-04-29T13:15:39.998Z,35.99
2023-04-29T13:18:06.967Z,36.08
2023-04-29T13:20:40.441Z,37.38
2023-04-29T13:23:09.085Z,37.55
2023-04-29T13:25:36.022Z,37.52
2023-04-29T13:28:02.892Z,37.34
2023-04-29T13:30:29.655Z,37.11
2023-04-29T13:33:00.483Z,36.72
2023-04-29T13:35:31.223Z,36.90
2023-04-29T13:37:57.995Z,37.36
2023-04-29T13:40:27.864Z,37.58
2023-04-29T13:43:02.618Z,37.73
2023-04-29T13:45:38.825Z,36.85
2023-04-29T13:48:16.831Z,37.29
2023-04-29T13:53:38.764Z,36.66
2023-04-29T13:59:19.801Z,37.17
2023-04-29T14:02:14.758Z,37.07
2023-04-29T14:04:12.376Z,37.90
2023-04-29T14:06:39.640Z,38.54
2023-04-29T14:09:06.283Z,39.18
2023-04-29T14:11:36.798Z,38.99
2023-04-29T14:14:03.843Z,37.57
2023-04-29T14:16:30.812Z,37.19
2023-04-29T14:18:57.617Z,37.66
2023-04-29T14:21:24.302Z,37.61
2023-04-29T14:23:51.154Z,37.77
2023-04-29T14:26:27.923Z,37.48
2023-04-29T14:28:59.472Z,37.44
2023-04-29T14:31:29.902Z,37.67
2023-04-29T14:33:57.186Z,38.04
2023-04-29T14:36:24.450Z,38.10
2023-04-29T14:38:51.306Z,37.91
2023-04-29T14:41:18.222Z,38.08
2023-04-29T14:43:44.893Z,38.04
2023-04-29T14:46:11.802Z,38.50
2023-04-29T14:48:38.638Z,39.00
2023-04-29T14:51:06.344Z,38.59
2023-04-29T14:53:33.647Z,38.55
2023-04-29T14:56:00.682Z,38.93
2023-04-29T14:58:27.305Z,39.15
2023-04-29T15:00:53.920Z,38.79
2023-04-29T15:03:23.011Z,38.66
2023-04-29T15:05:51.422Z,38.66
2023-04-29T15:08:19.029Z,38.79
2023-04-29T15:10:50.083Z,39.50
2023-04-29T15:13:16.842Z,39.47
2023-04-29T15:15:43.547Z,39.62
2023-04-29T15:18:10.242Z,40.08
2023-04-29T15:20:37.446Z,39.74
2023-04-29T15:23:05.424Z,39.28
2023-04-29T15:25:34.725Z,39.56
2023-04-29T15:28:04.032Z,40.25
2023-04-29T15:30:30.669Z,40.06
2023-04-29T15:32:57.318Z,39.81
2023-04-29T15:35:23.947Z,39.93
2023-04-29T15:37:50.648Z,39.67
2023-04-29T15:40:17.773Z,40.10
2023-04-29T15:42:44.418Z,40.25
2023-04-29T15:45:11.929Z,40.17
2023-04-29T15:47:38.699Z,40.44
2023-04-29T15:50:06.813Z,40.98
2023-04-29T15:52:33.432Z,40.54
2023-04-29T15:55:00.125Z,40.13
2023-04-29T15:57:26.860Z,39.67
2023-04-29T15:59:53.810Z,39.78
2023-04-29T16:02:21.269Z,39.99
2023-04-29T16:04:48.338Z,39.75
2023-04-29T16:07:14.979Z,39.84
2023-04-29T16:09:41.816Z,40.55
2023-04-29T16:12:11.571Z,40.81
2023-04-29T16:14:38.423Z,41.23
2023-04-29T16:17:05.761Z,41.20
2023-04-29T16:19:35.136Z,41.07
2023-04-29T16:22:03.390Z,41.12
2023-04-29T16:24:30.130Z,40.96
2023-04-29T16:26:56.983Z,41.51
2023-04-29T16:29:23.600Z,41.88
2023-04-29T16:31:50.448Z,41.91
2023-04-29T16:34:17.345Z,41.84
2023-04-29T16:36:43.981Z,42.22
2023-04-29T16:39:10.686Z,42.32
2023-04-29T16:41:37.570Z,42.22
2023-04-29T16:44:04.314Z,42.80
2023-04-29T16:46:32.547Z,42.63
2023-04-29T16:48:59.787Z,42.77
2023-04-29T16:51:27.545Z,42.70
2023-04-29T16:53:54.702Z,42.37
2023-04-29T16:56:22.765Z,42.90
2023-04-29T16:58:49.489Z,42.89
2023-04-29T17:01:16.179Z,42.88
2023-04-29T17:03:42.958Z,43.26
2023-04-29T17:06:09.716Z,43.33
2023-04-29T17:08:36.741Z,43.64
2023-04-29T17:11:03.448Z,44.17
2023-04-29T17:13:30.134Z,44.41
2023-04-29T17:15:57.017Z,44.73
2023-04-29T17:18:23.767Z,44.85
2023-04-29T17:20:51.164Z,45.27
2023-04-29T17:23:18.404Z,45.77
2023-04-29T17:25:45.242Z,46.04
2023-04-29T17:28:11.857Z,46.15
2023-04-29T17:30:38.690Z,46.24
2023-04-29T17:33:06.164Z,46.82
2023-04-29T17:35:33.351Z,46.88
2023-04-29T17:38:00.250Z,47.32
2023-04-29T17:40:27.053Z,47.74
2023-04-29T17:42:53.697Z,48.26
2023-04-29T17:45:20.363Z,48.76
2023-04-29T17:47:47.029Z,49.16
2023-04-29T17:50:14.136Z,50.02
2023-04-29T17:52:41.246Z,49.86
2023-04-29T17:55:08.548Z,49.32
2023-04-29T17:57:36.508Z,49.61
2023-04-29T18:00:04.788Z,50.38
2023-04-29T18:02:32.189Z,50.65
2023-04-29T18:04:58.803Z,51.77
2023-04-29T18:07:25.894Z,52.89
2023-04-29T18:09:52.713Z,52.92
2023-04-29T18:12:20.030Z,53.59
2023-04-29T18:14:48.816Z,53.91
2023-04-29T18:17:15.484Z,54.84
2023-04-29T18:19:42.351Z,54.56
2023-04-29T18:22:09.624Z,54.55
2023-04-29T18:24:36.295Z,55.47
2023-04-29T18:27:03.006Z,55.49
2023-04-29T18:29:29.645Z,55.10
2023-04-29T18:31:56.375Z,55.72
2023-04-29T18:34:23.122Z,56.61
2023-04-29T18:36:49.737Z,57.37
2023-04-29T18:39:16.411Z,57.20
2023-04-29T18:41:43.400Z,56.56
2023-04-29T18:44:11.661Z,56.91
2023-04-29T18:46:38.309Z,57.33
2023-04-29T18:49:05.213Z,56.49
2023-04-29T18:51:32.211Z,57.83
2023-04-29T18:53:58.950Z,58.58
2023-04-29T18:56:25.998Z,58.14
2023-04-29T18:58:52.736Z,57.16
2023-04-29T19:01:19.723Z,56.53
2023-04-29T19:03:46.678Z,56.48
2023-04-29T19:06:13.351Z,57.00
2023-04-29T19:08:40.097Z,57.67
2023-04-29T19:11:06.717Z,58.20
2023-04-29T19:13:33.709Z,57.37
2023-04-29T19:16:00.816Z,57.27
2023-04-29T19:18:28.042Z,57.20
2023-04-29T19:20:56.139Z,57.44
2023-04-29T19:23:22.762Z,56.63
2023-04-29T19:25:49.412Z,56.38
2023-04-29T19:28:16.113Z,56.61
2023-04-29T19:30:42.858Z,56.90
2023-04-29T19:33:09.557Z,56.95
2023-04-29T19:35:36.359Z,57.12
2023-04-29T19:38:03.229Z,58.34
2023-04-29T19:40:29.917Z,57.36
2023-04-29T19:42:56.652Z,58.01
2023-04-29T19:45:23.936Z,58.28
2023-04-29T19:47:50.840Z,58.91
2023-04-29T19:50:17.753Z,58.24
2023-04-29T19:52:44.435Z,58.36
2023-04-29T19:55:11.397Z,58.61
2023-04-29T19:57:38.869Z,59.01
2023-04-29T20:00:06.510Z,59.76
2023-04-29T20:02:33.467Z,59.81
2023-04-29T20:05:00.268Z,59.96
2023-04-29T20:07:26.901Z,60.55
2023-04-29T20:09:54.452Z,60.80
2023-04-29T20:12:21.531Z,61.42
2023-04-29T20:14:48.624Z,61.81
2023-04-29T20:17:17.874Z,62.18
2023-04-29T20:19:44.904Z,62.88
2023-04-29T20:22:11.609Z,63.77
2023-04-29T20:24:38.227Z,65.17
2023-04-29T20:27:04.902Z,65.47
2023-04-29T20:29:31.819Z,67.28
2023-04-29T20:31:58.560Z,67.75
2023-04-29T20:34:25.266Z,68.94
2023-04-29T20:36:51.918Z,69.69
2023-04-29T20:39:18.770Z,70.61
2023-04-29T20:41:45.565Z,73.58
2023-04-29T20:44:12.228Z,75.33
2023-04-29T20:46:39.492Z,75.24
2023-04-29T20:49:06.401Z,76.38
2023-04-29T20:51:33.381Z,75.97
2023-04-29T20:54:00.154Z,76.75
2023-04-29T20:56:27.938Z,77.56
2023-04-29T20:58:56.542Z,73.97
2023-04-29T21:01:23.316Z,73.38
2023-04-29T21:03:49.999Z,73.36
2023-04-29T21:06:18.055Z,73.88
2023-04-29T21:08:44.710Z,74.33
2023-04-29T21:11:11.558Z,75.03
2023-04-29T21:13:38.237Z,77.01
2023-04-29T21:16:05.617Z,79.35
2023-04-29T21:18:32.277Z,83.37
2023-04-29T21:20:58.935Z,85.74
2023-04-29T21:23:25.562Z,86.57
2023-04-29T21:25:52.202Z,87.26
2023-04-29T21:28:18.825Z,85.22
2023-04-29T21:30:45.475Z,83.65
2023-04-29T21:33:12.206Z,84.20
2023-04-29T21:35:42.198Z,84.55
2023-04-29T21:38:09.152Z,84.16
2023-04-29T21:40:36.818Z,83.32
2023-04-29T21:43:03.478Z,84.27
2023-04-29T21:45:30.228Z,84.38
2023-04-29T21:47:59.139Z,84.70
2023-04-29T21:50:26.051Z,85.91
2023-04-29T21:52:52.727Z,86.89
2023-04-29T21:55:19.505Z,88.75
2023-04-29T21:57:46.496Z,89.43
2023-04-29T22:00:32.999Z,90.37
2023-04-29T22:03:01.237Z,91.71
2023-04-29T22:05:28.020Z,93.00
2023-04-29T22:07:57.029Z,94.03
2023-04-29T22:10:23.632Z,94.52
2023-04-29T22:12:50.604Z,94.10
2023-04-29T22:15:28.318Z,94.19
2023-04-29T22:17:57.470Z,96.00
2023-04-29T22:20:24.607Z,97.72
2023-04-29T22:22:52.107Z,98.54
2023-04-29T22:25:21.004Z,97.82
2023-04-29T22:27:47.920Z,99.47
2023-04-29T22:30:14.725Z,100.00
2023-04-29T22:32:41.482Z,100.00
2023-04-29T22:35:08.104Z,100.00
2023-04-29T22:37:34.777Z,100.00
2023-04-29T22:40:01.410Z,100.00
2023-04-29T22:42:28.048Z,100.00
2023-04-29T22:44:54.651Z,100.00
2023-04-29T22:47:21.437Z,100.00
2023-04-29T22:49:48.172Z,100.00
2023-04-29T22:52:14.781Z,100.00
2023-04-29T22:54:41.443Z,100.00
2023-04-29T22:57:08.138Z,100.00
2023-04-29T22:59:35.118Z,100.00
2023-04-29T23:02:01.749Z,100.00
2023-04-29T23:04:28.614Z,100.00
2023-04-29T23:06:55.520Z,100.00
2023-04-29T23:09:22.281Z,100.00
2023-04-29T23:11:48.937Z,100.00
2023-04-29T23:14:15.689Z,100.00
2023-04-29T23:16:42.326Z,100.00
2023-04-29T23:19:09.092Z,100.00
2023-04-29T23:21:35.707Z,100.00
2023-04-29T23:24:02.373Z,100.00
2023-04-29T23:26:29.090Z,100.00
2023-04-29T23:28:55.758Z,100.00
2023-04-29T23:31:22.453Z,100.00
2023-04-29T23:33:49.260Z,100.00
2023-04-29T23:36:15.868Z,100.00
2023-04-29T23:38:42.497Z,100.00
2023-04-29T23:41:09.092Z,100.00
2023-04-29T23:43:35.865Z,100.00
2023-04-29T23:46:02.612Z,100.00
2023-04-29T23:48:29.606Z,100.00
2023-04-29T23:50:56.258Z,100.00
2023-04-29T23:53:22.859Z,100.00
2023-04-29T23:55:49.860Z,100.00
2023-04-29T23:58:16.550Z,100.00
